createdAt,value
2022-09-14T00:01:14.285Z,94.56
2022-09-14T00:03:42.818Z,94.18
2022-09-14T00:06:11.954Z,94.21
2022-09-14T00:08:39.901Z,93.74
2022-09-14T00:11:09.219Z,93.64
2022-09-14T00:13:37.362Z,93.54
2022-09-14T00:16:06.949Z,93.84
2022-09-14T00:18:35.406Z,94.13
2022-09-14T00:21:05.619Z,94.19
2022-09-14T00:23:33.510Z,94.17
2022-09-14T00:26:04.300Z,94.42
2022-09-14T00:28:31.804Z,94.14
2022-09-14T00:30:59.322Z,94.16
2022-09-14T00:33:26.881Z,94.04
2022-09-14T00:35:54.330Z,94.15
2022-09-14T00:38:23.186Z,94.00
2022-09-14T00:40:58.286Z,94.06
2022-09-14T00:43:26.130Z,94.45
2022-09-14T00:45:54.053Z,94.54
2022-09-14T00:48:24.128Z,94.02
2022-09-14T00:50:51.833Z,93.57
2022-09-14T00:53:20.010Z,92.88
2022-09-14T00:55:48.916Z,92.88
2022-09-14T00:58:16.373Z,94.31
2022-09-14T01:00:43.848Z,94.04
2022-09-14T01:03:11.441Z,94.63
2022-09-14T01:05:49.861Z,94.61
2022-09-14T01:08:26.594Z,94.24
2022-09-14T01:11:04.271Z,93.70
2022-09-14T01:13:40.370Z,93.50
2022-09-14T01:16:12.770Z,93.49
2022-09-14T01:18:44.716Z,93.65
2022-09-14T01:21:15.471Z,93.83
2022-09-14T01:23:48.538Z,93.85
2022-09-14T01:26:45.144Z,93.98
2022-09-14T01:29:16.714Z,94.25
2022-09-14T01:31:48.977Z,93.63
2022-09-14T01:34:24.019Z,94.04
2022-09-14T01:36:55.549Z,94.05
2022-09-14T01:39:23.663Z,93.50
2022-09-14T01:41:51.711Z,93.49
2022-09-14T01:44:23.733Z,93.38
2022-09-14T01:46:53.806Z,93.62
2022-09-14T01:49:28.273Z,93.29
2022-09-14T01:51:59.666Z,93.14
2022-09-14T01:54:29.989Z,92.90
2022-09-14T01:57:00.687Z,92.10
2022-09-14T01:59:32.739Z,92.19
2022-09-14T02:02:04.678Z,91.49
2022-09-14T02:04:37.470Z,91.44
2022-09-14T02:07:05.077Z,90.89
2022-09-14T02:09:32.617Z,91.12
2022-09-14T02:12:00.873Z,90.55
2022-09-14T02:14:30.275Z,90.76
2022-09-14T02:16:58.018Z,91.18
2022-09-14T02:19:27.418Z,91.19
2022-09-14T02:21:54.880Z,91.43
2022-09-14T02:24:23.048Z,91.03
2022-09-14T02:26:52.222Z,91.67
2022-09-14T02:29:19.773Z,91.42
2022-09-14T02:31:59.547Z,91.73
2022-09-14T02:34:31.840Z,92.05
2022-09-14T02:37:02.901Z,91.74
2022-09-14T02:39:37.077Z,91.32
2022-09-14T02:42:13.278Z,91.20
2022-09-14T02:44:43.781Z,92.12
2022-09-14T02:47:28.401Z,92.14
2022-09-14T02:49:59.517Z,92.37
2022-09-14T02:52:32.817Z,92.72
2022-09-14T02:55:04.556Z,93.32
2022-09-14T02:57:32.010Z,93.76
2022-09-14T02:59:59.591Z,93.47
2022-09-14T03:02:28.490Z,93.45
2022-09-14T03:04:56.497Z,93.48
2022-09-14T03:07:24.015Z,93.37
2022-09-14T03:09:51.478Z,92.84
2022-09-14T03:12:18.922Z,92.66
2022-09-14T03:14:46.406Z,93.08
2022-09-14T03:17:13.841Z,93.71
2022-09-14T03:19:42.635Z,93.54
2022-09-14T03:22:10.070Z,93.24
2022-09-14T03:24:37.517Z,93.22
2022-09-14T03:27:05.437Z,93.89
2022-09-14T03:29:32.894Z,94.80
2022-09-14T03:32:00.573Z,95.08
2022-09-14T03:34:28.041Z,94.43
2022-09-14T03:36:56.842Z,95.21
2022-09-14T03:39:24.846Z,94.97
2022-09-14T03:41:52.370Z,94.78
2022-09-14T03:44:19.862Z,95.08
2022-09-14T03:46:47.718Z,94.78
2022-09-14T03:49:15.239Z,94.62
2022-09-14T03:51:42.706Z,95.58
2022-09-14T03:54:11.542Z,95.57
2022-09-14T03:56:39.031Z,95.60
2022-09-14T03:59:09.110Z,96.26
2022-09-14T04:01:37.988Z,95.72
2022-09-14T04:04:05.578Z,96.04
2022-09-14T04:06:33.531Z,95.51
2022-09-14T04:09:00.978Z,95.29
2022-09-14T04:11:31.346Z,95.06
2022-09-14T04:14:02.146Z,95.01
2022-09-14T04:16:30.236Z,94.79
2022-09-14T04:18:57.867Z,94.98
2022-09-14T04:21:26.481Z,95.39
2022-09-14T04:26:44.184Z,96.36
2022-09-14T04:29:12.268Z,95.61
2022-09-14T04:31:40.009Z,95.61
2022-09-14T04:34:07.694Z,95.51
2022-09-14T04:36:35.178Z,95.78
2022-09-14T04:39:03.530Z,95.72
2022-09-14T04:41:32.370Z,95.73
2022-09-14T04:44:01.385Z,96.03
2022-09-14T04:46:31.209Z,96.16
2022-09-14T04:48:59.005Z,96.46
2022-09-14T04:51:28.745Z,96.33
2022-09-14T04:53:57.837Z,95.93
2022-09-14T04:56:26.223Z,95.94
2022-09-14T04:58:55.027Z,96.25
2022-09-14T05:01:25.632Z,96.38
2022-09-14T05:03:54.101Z,96.40
2022-09-14T05:06:24.443Z,96.72
2022-09-14T05:08:53.249Z,96.47
2022-09-14T05:11:22.481Z,96.58
2022-09-14T05:13:50.873Z,96.41
2022-09-14T05:16:20.339Z,96.17
2022-09-14T05:18:49.674Z,96.33
2022-09-14T05:21:19.396Z,96.47
2022-09-14T05:23:47.439Z,96.88
2022-09-14T05:26:15.506Z,96.64
2022-09-14T05:28:43.063Z,96.33
2022-09-14T05:31:13.447Z,96.29
2022-09-14T05:33:41.106Z,96.53
2022-09-14T05:36:11.451Z,96.82
2022-09-14T05:38:40.332Z,97.14
2022-09-14T05:41:09.436Z,97.38
2022-09-14T05:43:36.921Z,97.50
2022-09-14T05:46:09.018Z,97.55
2022-09-14T05:48:38.136Z,97.20
2022-09-14T05:51:07.648Z,97.24
2022-09-14T05:53:36.753Z,97.12
2022-09-14T05:56:06.088Z,97.10
2022-09-14T05:58:33.870Z,97.36
2022-09-14T06:01:08.158Z,96.87
2022-09-14T06:03:35.862Z,96.50
2022-09-14T06:06:03.992Z,96.57
2022-09-14T06:08:31.509Z,96.80
2022-09-14T06:11:04.549Z,97.08
2022-09-14T06:13:32.066Z,96.65
2022-09-14T06:16:02.902Z,96.26
2022-09-14T06:18:31.917Z,95.76
2022-09-14T06:20:59.447Z,95.04
2022-09-14T06:23:27.994Z,94.98
2022-09-14T06:25:55.837Z,95.06
2022-09-14T06:28:25.394Z,94.12
2022-09-14T06:30:53.512Z,94.03
2022-09-14T06:33:21.436Z,94.26
2022-09-14T06:35:58.311Z,92.43
2022-09-14T06:38:25.983Z,93.11
2022-09-14T06:40:55.797Z,92.26
2022-09-14T06:43:25.043Z,90.17
2022-09-14T06:45:59.925Z,89.29
2022-09-14T06:48:27.776Z,90.25
2022-09-14T06:50:55.252Z,90.09
2022-09-14T06:53:22.882Z,88.70
2022-09-14T06:55:50.441Z,86.96
2022-09-14T06:58:18.033Z,86.06
2022-09-14T07:00:46.890Z,85.92
2022-09-14T07:03:14.468Z,85.27
2022-09-14T07:05:41.965Z,85.95
2022-09-14T07:08:12.308Z,86.15
2022-09-14T07:10:40.101Z,86.08
2022-09-14T07:13:07.581Z,86.13
2022-09-14T07:15:35.046Z,85.84
2022-09-14T07:18:04.227Z,85.88
2022-09-14T07:20:31.736Z,85.75
2022-09-14T07:22:59.223Z,84.41
2022-09-14T07:25:26.690Z,82.73
2022-09-14T07:27:54.217Z,81.83
2022-09-14T07:30:24.847Z,82.73
2022-09-14T07:32:52.466Z,81.75
2022-09-14T07:35:24.967Z,82.05
2022-09-14T07:37:52.446Z,80.81
2022-09-14T07:40:19.938Z,79.51
2022-09-14T07:42:54.349Z,79.26
2022-09-14T07:45:24.890Z,79.16
2022-09-14T07:47:52.374Z,78.89
2022-09-14T07:50:21.569Z,76.61
2022-09-14T07:52:50.660Z,75.95
2022-09-14T07:55:18.890Z,75.91
2022-09-14T07:57:56.254Z,75.64
2022-09-14T08:00:26.277Z,75.92
2022-09-14T08:02:55.051Z,73.55
2022-09-14T08:05:24.394Z,74.95
2022-09-14T08:07:55.038Z,75.55
2022-09-14T08:10:22.710Z,74.04
2022-09-14T08:12:51.835Z,73.23
2022-09-14T08:15:19.514Z,73.91
2022-09-14T08:17:47.170Z,74.62
2022-09-14T08:20:16.298Z,74.28
2022-09-14T08:22:45.159Z,74.11
2022-09-14T08:25:13.153Z,74.13
2022-09-14T08:27:40.601Z,72.58
2022-09-14T08:30:10.047Z,72.94
2022-09-14T08:32:37.523Z,71.71
2022-09-14T08:35:07.065Z,69.52
2022-09-14T08:37:34.486Z,71.47
2022-09-14T08:40:04.818Z,71.47
2022-09-14T08:42:32.322Z,72.58
2022-09-14T08:45:06.349Z,73.16
2022-09-14T08:47:38.878Z,73.92
2022-09-14T08:50:13.175Z,74.00
2022-09-14T08:52:43.421Z,73.65
2022-09-14T08:55:23.035Z,73.05
2022-09-14T08:57:55.310Z,72.81
2022-09-14T09:00:24.777Z,71.18
2022-09-14T09:03:08.766Z,72.57
2022-09-14T09:05:41.352Z,72.75
2022-09-14T09:08:16.804Z,72.33
2022-09-14T09:10:46.339Z,71.18
2022-09-14T09:13:18.768Z,70.71
2022-09-14T09:15:49.173Z,69.40
2022-09-14T09:18:20.110Z,69.47
2022-09-14T09:20:51.720Z,69.87
2022-09-14T09:23:21.209Z,69.59
2022-09-14T09:25:57.291Z,70.18
2022-09-14T09:28:25.914Z,69.23
2022-09-14T09:30:55.159Z,70.04
2022-09-14T09:33:32.115Z,70.88
2022-09-14T09:36:16.664Z,71.50
2022-09-14T09:38:45.233Z,71.13
2022-09-14T09:41:17.822Z,71.42
2022-09-14T09:44:00.123Z,71.69
2022-09-14T09:46:29.422Z,71.73
2022-09-14T09:48:57.514Z,73.57
2022-09-14T09:51:29.869Z,75.59
2022-09-14T09:54:07.020Z,78.14
2022-09-14T09:56:39.473Z,79.20
2022-09-14T09:59:23.425Z,78.49
2022-09-14T10:01:52.263Z,79.59
2022-09-14T10:04:22.262Z,79.68
2022-09-14T10:06:51.164Z,80.46
2022-09-14T10:09:23.027Z,80.46
2022-09-14T10:11:59.252Z,80.50
2022-09-14T10:14:31.251Z,80.75
2022-09-14T10:17:09.369Z,81.32
2022-09-14T10:19:37.678Z,79.54
2022-09-14T10:22:17.523Z,79.41
2022-09-14T10:24:54.097Z,80.25
2022-09-14T10:27:41.285Z,79.88
2022-09-14T10:30:15.259Z,78.78
2022-09-14T10:32:45.839Z,78.82
2022-09-14T10:35:15.267Z,76.05
2022-09-14T10:37:53.912Z,74.98
2022-09-14T10:40:25.429Z,75.66
2022-09-14T10:43:04.856Z,76.96
2022-09-14T10:45:36.899Z,76.70
2022-09-14T10:48:15.816Z,77.94
2022-09-14T10:50:53.350Z,78.21
2022-09-14T10:53:32.201Z,80.24
2022-09-14T10:56:03.657Z,81.33
2022-09-14T10:58:41.984Z,81.04
2022-09-14T11:01:26.601Z,80.95
2022-09-14T11:04:07.255Z,83.80
2022-09-14T11:06:45.201Z,84.08
2022-09-14T11:09:18.587Z,83.02
2022-09-14T11:12:02.669Z,85.58
2022-09-14T11:14:42.290Z,85.03
2022-09-14T11:17:26.953Z,84.86
2022-09-14T11:20:00.696Z,84.36
2022-09-14T11:22:33.612Z,85.38
2022-09-14T11:25:04.858Z,85.79
2022-09-14T11:27:35.497Z,86.41
2022-09-14T11:30:07.122Z,86.62
2022-09-14T11:32:36.979Z,86.39
2022-09-14T11:35:16.471Z,87.53
2022-09-14T11:37:48.309Z,88.21
2022-09-14T11:40:25.538Z,88.72
2022-09-14T11:42:57.984Z,89.00
2022-09-14T11:45:30.096Z,89.65
2022-09-14T11:48:41.436Z,90.55
2022-09-14T11:51:05.661Z,90.55
2022-09-14T11:53:33.630Z,91.21
2022-09-14T11:56:01.665Z,92.19
2022-09-14T11:58:30.778Z,91.97
2022-09-14T12:01:31.237Z,91.33
2022-09-14T12:04:12.352Z,91.97
2022-09-14T12:06:54.981Z,92.30
2022-09-14T12:09:41.769Z,91.17
2022-09-14T12:12:31.545Z,91.00
2022-09-14T12:15:03.661Z,92.34
2022-09-14T12:17:41.243Z,92.06
2022-09-14T12:20:35.269Z,91.34
2022-09-14T12:23:11.805Z,90.00
2022-09-14T12:25:40.216Z,91.67
2022-09-14T12:28:47.686Z,91.97
2022-09-14T12:31:33.397Z,92.02
2022-09-14T12:34:16.302Z,91.31
2022-09-14T12:37:31.906Z,91.40
2022-09-14T12:40:31.257Z,91.92
2022-09-14T12:43:49.064Z,92.15
2022-09-14T12:46:39.780Z,92.25
2022-09-14T12:49:25.367Z,92.07
2022-09-14T12:51:53.030Z,92.00
2022-09-14T12:54:28.230Z,91.90
2022-09-14T12:57:07.829Z,92.73
2022-09-14T12:59:42.273Z,93.29
2022-09-14T13:02:26.290Z,92.85
2022-09-14T13:04:54.206Z,90.06
2022-09-14T13:07:22.749Z,90.52
2022-09-14T13:09:52.508Z,90.79
2022-09-14T13:12:25.217Z,91.66
2022-09-14T13:14:55.635Z,91.95
2022-09-14T13:17:30.393Z,90.58
2022-09-14T13:20:00.370Z,89.48
2022-09-14T13:22:29.292Z,89.13
2022-09-14T13:24:57.153Z,90.81
2022-09-14T13:27:27.861Z,91.57
2022-09-14T13:30:00.843Z,90.99
2022-09-14T13:32:28.641Z,90.92
2022-09-14T13:34:56.241Z,90.76
2022-09-14T13:37:24.566Z,91.00
2022-09-14T13:39:53.504Z,90.71
2022-09-14T13:42:22.008Z,90.35
2022-09-14T13:44:51.445Z,91.04
2022-09-14T13:47:20.790Z,89.93
2022-09-14T13:49:50.281Z,89.84
2022-09-14T13:52:19.704Z,89.78
2022-09-14T13:54:47.499Z,89.88
2022-09-14T13:57:16.887Z,90.61
2022-09-14T14:00:20.935Z,90.43
2022-09-14T14:02:50.763Z,90.82
2022-09-14T14:05:23.833Z,92.04
2022-09-14T14:07:51.857Z,91.79
2022-09-14T14:10:26.110Z,91.78
2022-09-14T14:12:53.778Z,91.85
2022-09-14T14:15:49.705Z,92.67
2022-09-14T14:18:33.168Z,93.48
2022-09-14T14:21:14.903Z,92.67
2022-09-14T14:23:56.790Z,92.83
2022-09-14T14:26:30.836Z,93.68
2022-09-14T14:29:11.600Z,94.28
2022-09-14T14:31:40.558Z,93.96
2022-09-14T14:34:13.937Z,93.27
2022-09-14T14:36:41.440Z,93.00
2022-09-14T14:39:08.953Z,94.73
2022-09-14T14:41:36.634Z,94.22
2022-09-14T14:44:04.910Z,94.27
2022-09-14T14:46:32.421Z,94.34
2022-09-14T14:49:01.301Z,94.33
2022-09-14T14:51:28.792Z,94.57
2022-09-14T14:53:56.297Z,94.76
2022-09-14T14:56:23.769Z,95.23
2022-09-14T14:58:51.403Z,94.34
2022-09-14T15:01:19.004Z,94.38
2022-09-14T15:03:46.869Z,94.48
2022-09-14T15:06:20.022Z,92.67
2022-09-14T15:08:48.381Z,92.89
2022-09-14T15:11:17.788Z,92.35
2022-09-14T15:13:45.558Z,93.72
2022-09-14T15:16:14.744Z,93.65
2022-09-14T15:18:42.799Z,93.80
2022-09-14T15:21:10.597Z,94.28
2022-09-14T15:23:39.894Z,93.82
2022-09-14T15:26:07.711Z,92.85
2022-09-14T15:28:38.379Z,93.06
2022-09-14T15:31:07.935Z,91.87
2022-09-14T15:33:35.638Z,92.23
2022-09-14T15:36:03.620Z,92.57
2022-09-14T15:38:31.282Z,93.87
2022-09-14T15:41:00.089Z,93.73
2022-09-14T15:43:27.615Z,93.06
2022-09-14T15:45:55.443Z,93.46
2022-09-14T15:48:23.042Z,92.91
2022-09-14T15:50:50.508Z,92.51
2022-09-14T15:53:18.331Z,92.30
2022-09-14T15:55:47.051Z,92.24
2022-09-14T15:58:15.841Z,91.65
2022-09-14T16:00:44.835Z,91.04
2022-09-14T16:03:12.748Z,90.92
2022-09-14T16:05:40.442Z,91.30
2022-09-14T16:08:08.253Z,89.97
2022-09-14T16:10:35.706Z,90.29
2022-09-14T16:13:03.164Z,90.84
2022-09-14T16:15:31.976Z,91.02
2022-09-14T16:17:59.503Z,91.08
2022-09-14T16:20:26.941Z,91.64
2022-09-14T16:22:54.457Z,91.51
2022-09-14T16:25:21.990Z,92.09
2022-09-14T16:27:49.779Z,92.54
2022-09-14T16:30:17.391Z,92.94
2022-09-14T16:32:46.443Z,92.40
2022-09-14T16:35:13.947Z,92.63
2022-09-14T16:37:41.385Z,93.15
2022-09-14T16:40:09.667Z,93.35
2022-09-14T16:42:37.246Z,94.09
2022-09-14T16:45:05.285Z,93.64
2022-09-14T16:47:33.144Z,94.02
2022-09-14T16:50:01.937Z,94.23
2022-09-14T16:52:29.873Z,94.25
2022-09-14T16:54:57.322Z,94.62
2022-09-14T16:57:29.825Z,94.78
2022-09-14T16:59:57.277Z,94.21
2022-09-14T17:02:24.773Z,93.73
2022-09-14T17:04:52.722Z,93.94
2022-09-14T17:07:23.634Z,94.34
2022-09-14T17:09:51.317Z,94.56
2022-09-14T17:12:18.777Z,94.46
2022-09-14T17:14:47.698Z,94.17
2022-09-14T17:17:15.592Z,93.89
2022-09-14T17:19:43.847Z,95.38
2022-09-14T17:22:11.477Z,95.17
2022-09-14T17:24:40.591Z,94.80
2022-09-14T17:27:08.452Z,95.10
2022-09-14T17:29:39.369Z,95.10
2022-09-14T17:32:10.153Z,95.64
2022-09-14T17:34:40.085Z,94.86
2022-09-14T17:37:07.525Z,96.02
2022-09-14T17:39:34.956Z,96.24
2022-09-14T17:42:03.946Z,95.26
2022-09-14T17:44:31.796Z,95.27
2022-09-14T17:46:59.304Z,96.22
2022-09-14T17:49:26.746Z,97.26
2022-09-14T17:51:54.150Z,97.48
2022-09-14T17:54:21.816Z,98.36
2022-09-14T17:56:49.538Z,97.76
2022-09-14T17:59:19.897Z,99.68
2022-09-14T18:01:47.440Z,99.93
2022-09-14T18:04:15.748Z,100.00
2022-09-14T18:06:45.447Z,100.00
2022-09-14T18:09:15.003Z,100.00
2022-09-14T18:11:42.858Z,100.00
2022-09-14T18:14:12.596Z,100.00
2022-09-14T18:16:42.056Z,99.56
2022-09-14T18:19:11.933Z,99.76
2022-09-14T18:21:39.394Z,99.29
2022-09-14T18:24:07.497Z,99.66
2022-09-14T18:26:35.227Z,99.84
2022-09-14T18:29:03.563Z,100.00
2022-09-14T18:31:31.353Z,100.00
2022-09-14T18:34:00.988Z,100.00
2022-09-14T18:36:29.937Z,100.00
2022-09-14T18:38:57.994Z,100.00
2022-09-14T18:41:31.130Z,100.00
2022-09-14T18:43:59.211Z,100.00
2022-09-14T18:46:28.388Z,100.00
2022-09-14T18:48:57.692Z,100.00
2022-09-14T18:51:27.781Z,100.00
2022-09-14T18:53:58.800Z,100.00
2022-09-14T18:56:26.650Z,100.00
2022-09-14T18:58:54.439Z,100.00
2022-09-14T19:01:25.892Z,100.00
2022-09-14T19:03:55.855Z,100.00
2022-09-14T19:06:23.925Z,100.00
2022-09-14T19:08:53.178Z,100.00
2022-09-14T19:11:22.693Z,100.00
2022-09-14T19:13:56.237Z,100.00
2022-09-14T19:16:25.549Z,100.00
2022-09-14T19:18:54.597Z,100.00
2022-09-14T19:21:25.254Z,100.00
2022-09-14T19:24:04.655Z,100.00
2022-09-14T19:26:36.303Z,100.00
2022-09-14T19:29:07.651Z,100.00
2022-09-14T19:31:36.576Z,99.69
2022-09-14T19:34:05.907Z,99.76
2022-09-14T19:36:34.857Z,100.00
2022-09-14T19:39:05.075Z,100.00
2022-09-14T19:41:34.347Z,100.00
2022-09-14T19:44:03.310Z,100.00
2022-09-14T19:46:32.319Z,100.00
2022-09-14T19:49:00.043Z,100.00
2022-09-14T19:51:28.918Z,100.00
2022-09-14T19:53:57.641Z,100.00
2022-09-14T19:56:28.176Z,100.00
2022-09-14T19:59:01.459Z,100.00
2022-09-14T20:01:30.434Z,100.00
2022-09-14T20:03:58.502Z,100.00
2022-09-14T20:06:29.495Z,100.00
2022-09-14T20:08:59.865Z,100.00
2022-09-14T20:11:30.040Z,100.00
2022-09-14T20:13:59.917Z,100.00
2022-09-14T20:16:29.671Z,100.00
2022-09-14T20:18:58.485Z,100.00
2022-09-14T20:21:27.220Z,100.00
2022-09-14T20:24:14.489Z,100.00
2022-09-14T20:26:44.543Z,100.00
2022-09-14T20:29:12.261Z,100.00
2022-09-14T20:31:39.723Z,100.00
2022-09-14T20:34:09.950Z,100.00
2022-09-14T20:36:39.689Z,100.00
2022-09-14T20:39:10.018Z,100.00
2022-09-14T20:41:37.473Z,100.00
2022-09-14T20:44:07.034Z,100.00
2022-09-14T20:46:38.354Z,100.00
2022-09-14T20:49:08.677Z,100.00
2022-09-14T20:51:36.656Z,100.00
2022-09-14T20:54:08.132Z,100.00
2022-09-14T20:56:36.676Z,100.00
2022-09-14T20:59:09.426Z,100.00
2022-09-14T21:01:38.749Z,100.00
2022-09-14T21:04:08.911Z,100.00
2022-09-14T21:06:37.625Z,100.00
2022-09-14T21:09:05.188Z,100.00
2022-09-14T21:11:34.662Z,100.00
2022-09-14T21:14:02.308Z,100.00
2022-09-14T21:16:32.892Z,100.00
2022-09-14T21:19:02.264Z,100.00
2022-09-14T21:21:30.043Z,100.00
2022-09-14T21:23:58.646Z,100.00
2022-09-14T21:26:26.816Z,100.00
2022-09-14T21:28:56.218Z,100.00
2022-09-14T21:31:24.426Z,100.00
2022-09-14T21:33:55.158Z,100.00
2022-09-14T21:36:24.325Z,100.00
2022-09-14T21:38:52.986Z,100.00
2022-09-14T21:41:21.472Z,100.00
2022-09-14T21:43:49.001Z,100.00
2022-09-14T21:46:18.612Z,100.00
2022-09-14T21:48:46.933Z,100.00
2022-09-14T21:51:18.785Z,100.00
2022-09-14T21:53:47.342Z,100.00
2022-09-14T21:56:15.043Z,100.00
2022-09-14T21:58:42.537Z,100.00
2022-09-14T22:01:10.096Z,100.00
2022-09-14T22:03:38.826Z,100.00
2022-09-14T22:06:08.088Z,100.00
2022-09-14T22:08:36.990Z,100.00
2022-09-14T22:11:05.561Z,100.00
2022-09-14T22:13:33.036Z,100.00
2022-09-14T22:16:07.862Z,100.00
2022-09-14T22:18:35.720Z,100.00
2022-09-14T22:21:03.479Z,100.00
2022-09-14T22:23:31.178Z,100.00
2022-09-14T22:26:03.578Z,100.00
2022-09-14T22:28:31.100Z,100.00
2022-09-14T22:30:58.609Z,100.00
2022-09-14T22:33:26.060Z,100.00
2022-09-14T22:35:54.738Z,100.00
2022-09-14T22:38:22.603Z,100.00
2022-09-14T22:40:55.341Z,100.00
2022-09-14T22:43:25.137Z,100.00
2022-09-14T22:45:52.917Z,100.00
2022-09-14T22:48:21.051Z,100.00
2022-09-14T22:50:52.898Z,100.00
2022-09-14T22:53:21.393Z,100.00
2022-09-14T22:55:48.834Z,100.00
2022-09-14T22:58:17.788Z,100.00
2022-09-14T23:00:47.296Z,100.00
2022-09-14T23:03:16.029Z,100.00
2022-09-14T23:05:50.182Z,100.00
2022-09-14T23:08:18.169Z,100.00
2022-09-14T23:10:46.018Z,100.00
2022-09-14T23:13:13.413Z,100.00
2022-09-14T23:15:44.114Z,100.00
2022-09-14T23:18:13.423Z,100.00
2022-09-14T23:20:42.586Z,100.00
2022-09-14T23:23:10.794Z,100.00
2022-09-14T23:25:41.114Z,100.00
2022-09-14T23:28:10.876Z,100.00
2022-09-14T23:30:38.877Z,100.00
2022-09-14T23:33:06.593Z,100.00
2022-09-14T23:35:37.707Z,100.00
2022-09-14T23:38:05.493Z,100.00
2022-09-14T23:40:32.963Z,100.00
2022-09-14T23:43:00.421Z,100.00
2022-09-14T23:45:27.825Z,100.00
2022-09-14T23:47:55.690Z,100.00
2022-09-14T23:50:23.576Z,100.00
2022-09-14T23:52:57.133Z,100.00
2022-09-14T23:55:24.666Z,100.00
2022-09-14T23:57:52.125Z,100.00
